Time;durP1;ratioP1;P1;durP2;ratioP2;P2;SDS_P1;SDS_P2;PMS_P1;PMS_P2;Temp;Humidity;BMP_temperature;BMP_pressure;BME280_temperature;BME280_humidity;BME280_pressure;Samples;Min_cycle;Max_cycle;Signal;HPM_P1;HPM_P2
2021/08/08 00:01:25;;;;;;;13.05;4.40;;;;;;;13.60;94.81;97676.25;5051981;28;20032;-61
2021/08/08 00:03:51;;;;;;;8.70;3.83;;;;;;;13.63;94.72;97678.31;5054396;28;20060;-60
2021/08/08 00:06:16;;;;;;;15.07;5.00;;;;;;;13.60;94.15;97673.53;5052637;28;20045;-62
2021/08/08 00:08:42;;;;;;;11.30;4.68;;;;;;;13.65;94.47;97665.28;5049263;28;20055;-61
2021/08/08 00:11:08;;;;;;;17.38;4.38;;;;;;;13.64;94.14;97674.50;5058655;28;20041;-63
2021/08/08 00:13:33;;;;;;;9.98;3.90;;;;;;;13.66;94.23;97672.28;5057083;28;20036;-61
2021/08/08 00:15:59;;;;;;;12.25;3.97;;;;;;;13.65;94.36;97678.00;5060481;28;20043;-61
2021/08/08 00:18:25;;;;;;;9.10;3.65;;;;;;;13.69;94.42;97682.47;5059059;28;20119;-61
2021/08/08 00:20:51;;;;;;;11.73;4.28;;;;;;;13.67;93.90;97673.88;5059456;28;20544;-62
2021/08/08 00:23:16;;;;;;;13.48;4.25;;;;;;;13.66;93.43;97671.47;5056614;28;20088;-59
2021/08/08 00:25:42;;;;;;;9.85;3.70;;;;;;;13.68;93.40;97682.78;5054115;28;20033;-60
2021/08/08 00:28:07;;;;;;;13.30;3.80;;;;;;;13.63;93.10;97685.63;5052137;28;20037;-61
2021/08/08 00:30:33;;;;;;;15.40;4.50;;;;;;;13.61;93.10;97681.34;5059826;28;20040;-61
2021/08/08 00:32:59;;;;;;;20.25;4.78;;;;;;;13.68;93.45;97682.78;5059995;28;20033;-62
2021/08/08 00:35:24;;;;;;;13.10;3.97;;;;;;;13.66;93.52;97685.81;5061598;28;20043;-62
2021/08/08 00:37:50;;;;;;;12.10;4.07;;;;;;;13.62;94.16;97687.56;5069899;28;20052;-62
2021/08/08 00:40:17;;;;;;;9.98;3.88;;;;;;;13.58;94.22;97681.97;5064229;28;20037;-62
2021/08/08 00:42:45;;;;;;;16.92;4.70;;;;;;;13.55;94.36;97679.88;5062371;28;20055;-61
2021/08/08 00:45:13;;;;;;;12.10;4.30;;;;;;;13.53;94.60;97681.31;5061896;28;20103;-62
2021/08/08 00:47:38;;;;;;;13.10;4.20;;;;;;;13.50;94.77;97677.31;5059253;28;20079;-61
2021/08/08 00:50:04;;;;;;;16.70;4.35;;;;;;;13.52;94.83;97679.72;5065957;28;20134;-62
2021/08/08 00:52:30;;;;;;;13.23;4.80;;;;;;;13.53;94.61;97681.31;5060226;28;20041;-60
2021/08/08 00:54:55;;;;;;;16.58;4.20;;;;;;;13.56;94.88;97684.19;5060513;28;20055;-61
2021/08/08 00:57:21;;;;;;;13.73;4.50;;;;;;;13.58;94.71;97683.88;5063354;28;20033;-60
2021/08/08 00:59:46;;;;;;;18.00;4.57;;;;;;;13.57;94.73;97676.88;5059510;28;20055;-61
2021/08/08 01:02:12;;;;;;;12.27;4.30;;;;;;;13.52;94.46;97682.44;5053006;28;20060;-62
2021/08/08 01:04:47;;;;;;;12.75;4.13;;;;;;;13.55;94.26;97685.28;5052267;28;20098;-61
2021/08/08 01:07:18;;;;;;;15.18;4.38;;;;;;;13.54;93.82;97681.00;5062799;28;20029;-62
2021/08/08 01:09:49;;;;;;;14.48;4.57;;;;;;;13.58;93.87;97684.66;5057850;28;20032;-61
2021/08/08 01:12:15;;;;;;;11.07;4.47;;;;;;;13.63;94.07;97678.31;5059487;28;20029;-60
2021/08/08 01:14:42;;;;;;;11.68;4.35;;;;;;;13.63;93.58;97686.44;5059180;28;20094;-60
2021/08/08 01:17:09;;;;;;;18.58;4.38;;;;;;;13.65;93.33;97672.59;5063167;28;20114;-60
2021/08/08 01:20:03;;;;;;;14.90;3.90;;;;;;;13.64;93.03;97681.81;5064269;28;20025;-60
2021/08/08 01:22:31;;;;;;;14.13;3.97;;;;;;;13.61;93.31;97675.91;5055388;28;20539;-61
2021/08/08 01:24:58;;;;;;;15.63;3.75;;;;;;;13.62;93.08;97679.44;5043336;28;20040;-61
2021/08/08 01:27:25;;;;;;;11.70;3.85;;;;;;;13.66;93.03;97680.41;5056193;28;20037;-61
2021/08/08 01:29:55;;;;;;;17.92;3.97;;;;;;;13.65;92.92;97680.72;5058825;28;20099;-61
2021/08/08 01:32:22;;;;;;;10.23;3.78;;;;;;;13.68;93.04;97683.59;5061520;28;20105;-61
2021/08/08 01:34:48;;;;;;;12.80;4.80;;;;;;;13.65;93.11;97672.59;5062587;28;20033;-61
2021/08/08 01:37:18;;;;;;;12.93;4.03;;;;;;;13.68;93.39;97678.19;5065705;28;20029;-61
2021/08/08 01:39:46;;;;;;;10.20;3.60;;;;;;;13.63;93.30;97670.22;5058561;28;20040;-61
2021/08/08 01:42:13;;;;;;;11.13;3.72;;;;;;;13.68;93.01;97671.97;5061397;28;20034;-61
2021/08/08 01:44:46;;;;;;;8.68;3.30;;;;;;;13.65;92.75;97681.50;5057201;28;20029;-61
2021/08/08 01:47:14;;;;;;;11.10;4.00;;;;;;;13.66;93.35;97674.19;5049407;28;20041;-61
2021/08/08 01:49:43;;;;;;;8.43;3.10;;;;;;;13.68;92.98;97678.19;5051243;28;20773;-61
2021/08/08 01:52:10;;;;;;;8.07;3.38;;;;;;;13.67;93.02;97676.59;5058495;28;20033;-62
2021/08/08 01:54:36;;;;;;;16.88;3.38;;;;;;;13.70;93.00;97677.84;5057593;28;20037;-62
2021/08/08 01:57:02;;;;;;;10.88;3.67;;;;;;;13.71;92.55;97676.75;5056729;28;20040;-61
2021/08/08 01:59:27;;;;;;;10.80;3.33;;;;;;;13.72;93.10;97684.56;5052426;28;20392;-62
2021/08/08 02:01:53;;;;;;;8.00;3.30;;;;;;;13.78;92.56;97676.31;5050147;28;20111;-61
2021/08/08 02:04:26;;;;;;;11.30;3.30;;;;;;;13.72;92.25;97678.34;5049301;28;20143;-61
2021/08/08 02:06:52;;;;;;;8.93;3.30;;;;;;;13.72;92.52;97686.47;5056255;28;20111;-61
2021/08/08 02:09:18;;;;;;;11.30;3.10;;;;;;;13.72;92.98;97681.84;5058730;28;20047;-61
2021/08/08 02:11:43;;;;;;;9.15;3.40;;;;;;;13.75;92.76;97683.94;5053304;28;20493;-61
2021/08/08 02:14:11;;;;;;;16.50;3.83;;;;;;;13.71;92.80;97685.66;5052622;28;20052;-61
2021/08/08 02:16:38;;;;;;;13.48;3.65;;;;;;;13.76;92.75;97690.13;5052826;28;20082;-61
2021/08/08 02:19:05;;;;;;;14.63;3.58;;;;;;;13.72;93.25;97689.97;5048664;28;20053;-61
2021/08/08 02:21:31;;;;;;;11.27;3.65;;;;;;;13.76;92.39;97695.53;5053922;28;20060;-60
2021/08/08 02:23:57;;;;;;;9.93;3.17;;;;;;;13.80;92.52;97693.78;5053736;28;20475;-60
2021/08/08 02:26:23;;;;;;;13.55;3.45;;;;;;;13.76;92.53;97701.75;5044865;28;20032;-60
2021/08/08 02:28:49;;;;;;;10.38;2.85;;;;;;;13.78;93.07;97703.34;5055737;28;20557;-61
2021/08/08 02:31:18;;;;;;;8.20;3.10;;;;;;;13.78;92.68;97700.66;5059671;28;20072;-61
2021/08/08 02:33:47;;;;;;;10.20;3.42;;;;;;;13.77;92.58;97699.84;5061343;28;20028;-61
2021/08/08 02:36:13;;;;;;;11.30;3.45;;;;;;;13.76;92.17;97707.16;5059452;28;20090;-61
2021/08/08 02:38:38;;;;;;;9.27;3.08;;;;;;;13.76;92.28;97699.06;5055693;28;20036;-61
2021/08/08 02:41:04;;;;;;;17.80;3.30;;;;;;;13.81;92.17;97694.59;5063165;28;20041;-61
2021/08/08 02:43:30;;;;;;;11.77;3.78;;;;;;;13.81;92.28;97703.50;5045682;28;20033;-61
2021/08/08 02:45:55;;;;;;;10.82;3.30;;;;;;;13.80;92.42;97706.53;5058070;28;20490;-61
2021/08/08 02:48:21;;;;;;;10.85;3.13;;;;;;;13.78;92.84;97708.75;5057805;28;20114;-60
2021/08/08 02:50:47;;;;;;;18.30;3.90;;;;;;;13.76;92.82;97711.78;5048210;28;20036;-60
2021/08/08 02:53:13;;;;;;;10.98;3.50;;;;;;;13.76;91.99;97712.59;5055961;28;20048;-60
2021/08/08 02:55:38;;;;;;;10.30;3.03;;;;;;;13.79;92.22;97713.84;5062403;28;20033;-61
2021/08/08 02:58:04;;;;;;;9.50;2.97;;;;;;;13.81;91.79;97710.84;5062257;28;20150;-61
2021/08/08 03:00:29;;;;;;;7.65;2.55;;;;;;;13.77;91.13;97716.06;5061530;28;20037;-61
2021/08/08 03:02:55;;;;;;;12.30;2.90;;;;;;;13.75;92.69;97721.81;5052498;28;20060;-61
2021/08/08 03:05:21;;;;;;;8.18;2.78;;;;;;;13.73;92.41;97724.03;5057014;28;20486;-60
2021/08/08 03:07:48;;;;;;;7.72;2.30;;;;;;;13.72;92.63;97725.13;5067722;28;20048;-61
2021/08/08 03:10:14;;;;;;;6.50;2.58;;;;;;;13.74;92.29;97724.81;5051002;28;20032;-60
2021/08/08 03:12:39;;;;;;;5.55;2.15;;;;;;;13.76;92.22;97728.00;5069119;28;20025;-60
2021/08/08 03:15:05;;;;;;;7.95;2.45;;;;;;;13.75;92.45;97724.50;5055386;28;20028;-60
2021/08/08 03:17:31;;;;;;;7.35;2.42;;;;;;;13.72;92.50;97738.66;5065437;28;20470;-60
2021/08/08 03:19:57;;;;;;;6.53;1.95;;;;;;;13.69;92.83;97728.47;5049510;28;20100;-64
2021/08/08 03:22:23;;;;;;;9.02;2.38;;;;;;;13.68;93.06;97736.88;5073619;28;20427;-61
2021/08/08 03:24:48;;;;;;;5.85;1.88;;;;;;;13.66;93.41;97731.81;5068272;28;20535;-60
2021/08/08 03:27:14;;;;;;;15.65;2.13;;;;;;;13.66;93.27;97736.41;5047972;28;20560;-61
2021/08/08 03:29:39;;;;;;;4.35;1.60;;;;;;;13.70;92.85;97731.97;5051006;28;20036;-61
2021/08/08 03:32:05;;;;;;;3.88;1.77;;;;;;;13.65;93.32;97732.91;5057879;28;20402;-60
2021/08/08 03:34:30;;;;;;;7.50;2.00;;;;;;;13.64;93.58;97734.03;5066454;28;20032;-60
2021/08/08 03:36:56;;;;;;;7.90;1.67;;;;;;;13.62;93.85;97736.25;5044537;28;20048;-61
2021/08/08 03:39:25;;;;;;;4.07;1.75;;;;;;;13.59;94.50;97736.88;5053907;28;20065;-60
2021/08/08 03:41:51;;;;;;;2.28;1.50;;;;;;;13.55;94.46;97735.88;5060996;28;20029;-61
2021/08/08 03:44:17;;;;;;;3.10;1.13;;;;;;;13.51;94.71;97735.69;5065079;28;20037;-61
2021/08/08 03:46:42;;;;;;;2.20;1.20;;;;;;;13.49;94.75;97734.44;5056488;28;20489;-61
2021/08/08 03:49:10;;;;;;;2.97;1.30;;;;;;;13.48;95.04;97725.50;5049397;28;20476;-61
2021/08/08 03:51:36;;;;;;;4.75;1.33;;;;;;;13.47;95.23;97723.91;5060212;28;20039;-61
2021/08/08 03:54:01;;;;;;;5.70;1.60;;;;;;;13.46;95.18;97725.84;5062687;28;20037;-61
2021/08/08 03:56:27;;;;;;;6.57;2.72;;;;;;;13.48;95.14;97730.13;5067268;28;20593;-61
2021/08/08 03:58:53;;;;;;;4.47;1.60;;;;;;;13.46;94.61;97722.31;5071219;28;20425;-61
2021/08/08 04:01:18;;;;;;;5.90;1.80;;;;;;;13.48;94.73;97714.69;5050172;28;20043;-61
2021/08/08 04:03:44;;;;;;;4.55;1.80;;;;;;;13.49;95.23;97727.09;5059744;28;20486;-61
2021/08/08 04:06:10;;;;;;;6.63;2.15;;;;;;;13.45;96.19;97726.94;5069857;28;20043;-61
2021/08/08 04:08:35;;;;;;;5.20;1.98;;;;;;;13.43;96.37;97726.47;5058200;28;20057;-61
2021/08/08 04:11:00;;;;;;;7.28;2.10;;;;;;;13.40;96.54;97731.63;5067795;28;20115;-61
2021/08/08 04:13:26;;;;;;;5.05;2.10;;;;;;;13.38;96.91;97733.84;5055731;28;20127;-61
2021/08/08 04:15:52;;;;;;;5.97;2.03;;;;;;;13.35;96.57;97727.19;5064734;28;20493;-61
2021/08/08 04:18:17;;;;;;;5.90;2.15;;;;;;;13.37;96.56;97724.97;5062721;28;20040;-61
2021/08/08 04:20:43;;;;;;;3.30;2.00;;;;;;;13.35;97.11;97735.28;5056803;28;20031;-61
2021/08/08 04:23:10;;;;;;;6.38;2.08;;;;;;;13.35;96.61;97735.28;5043607;28;20039;-61
2021/08/08 04:25:38;;;;;;;7.43;2.20;;;;;;;13.36;96.58;97730.66;5052885;28;20071;-61
2021/08/08 04:28:07;;;;;;;8.27;2.13;;;;;;;13.37;96.58;97729.56;5051925;28;20044;-61
2021/08/08 04:30:34;;;;;;;4.75;1.90;;;;;;;13.33;96.60;97734.81;5067076;28;20036;-61
2021/08/08 04:33:01;;;;;;;7.78;2.05;;;;;;;13.35;96.92;97734.47;5060125;28;20074;-61
2021/08/08 04:35:28;;;;;;;8.30;2.15;;;;;;;13.35;97.11;97745.28;5064857;28;20043;-62
2021/08/08 04:37:54;;;;;;;5.75;2.30;;;;;;;13.35;96.93;97732.59;5067583;28;20032;-61
2021/08/08 04:40:19;;;;;;;3.92;1.67;;;;;;;13.35;96.67;97742.59;5073486;28;20028;-62
2021/08/08 04:42:45;;;;;;;3.55;1.95;;;;;;;13.35;97.20;97742.59;5049308;28;20033;-62
2021/08/08 04:45:10;;;;;;;5.28;2.25;;;;;;;13.35;97.10;97748.00;5057551;28;20028;-61
2021/08/08 04:47:36;;;;;;;12.05;2.35;;;;;;;13.36;97.08;97745.00;5059326;28;20037;-61
2021/08/08 04:50:02;;;;;;;5.10;2.50;;;;;;;13.39;97.42;97746.28;5057142;28;20124;-61
2021/08/08 04:52:37;;;;;;;5.07;2.20;;;;;;;13.39;96.59;97748.97;5069062;28;20473;-61
2021/08/08 04:55:04;;;;;;;7.38;2.30;;;;;;;13.40;96.87;97747.88;5068046;28;20032;-61
2021/08/08 04:57:30;;;;;;;6.68;2.35;;;;;;;13.39;96.89;97747.09;5047508;28;20036;-61
2021/08/08 04:59:56;;;;;;;9.25;2.58;;;;;;;13.39;97.55;97751.69;5071556;28;20048;-61
2021/08/08 05:02:21;;;;;;;8.38;2.50;;;;;;;13.44;97.51;97751.56;5057480;28;20485;-61
2021/08/08 05:04:47;;;;;;;11.13;2.80;;;;;;;13.35;97.81;97751.50;5053555;28;20037;-61
2021/08/08 05:07:13;;;;;;;7.95;2.55;;;;;;;13.32;98.17;97752.13;5063180;28;20111;-61
2021/08/08 05:09:38;;;;;;;5.65;2.70;;;;;;;13.33;98.56;97753.72;5064958;28;20124;-61
2021/08/08 05:12:06;;;;;;;7.65;2.95;;;;;;;13.32;98.27;97747.50;5065495;28;20094;-60
2021/08/08 05:14:32;;;;;;;10.95;2.90;;;;;;;13.32;98.33;97752.91;5051474;28;20063;-60
2021/08/08 05:16:58;;;;;;;6.43;2.25;;;;;;;13.33;98.42;97743.69;5064502;28;20046;-60
2021/08/08 05:19:23;;;;;;;9.05;2.90;;;;;;;13.30;98.15;97748.94;5057039;28;20040;-60
2021/08/08 05:21:49;;;;;;;10.52;2.72;;;;;;;13.35;98.30;97754.22;5054755;28;20060;-60
2021/08/08 05:24:18;;;;;;;8.65;2.40;;;;;;;13.33;98.33;97756.44;5043328;28;20040;-60
2021/08/08 05:26:43;;;;;;;6.57;2.75;;;;;;;13.33;98.51;97757.22;5046122;28;20033;-60
2021/08/08 05:29:09;;;;;;;5.65;2.63;;;;;;;13.37;98.55;97756.59;5065033;28;20055;-60
2021/08/08 05:31:34;;;;;;;7.45;3.10;;;;;;;13.35;98.34;97766.94;5063234;28;20470;-60
2021/08/08 05:34:00;;;;;;;8.68;2.88;;;;;;;13.40;98.47;97761.38;5071099;28;20029;-60
2021/08/08 05:36:25;;;;;;;10.30;2.60;;;;;;;13.37;98.58;97762.81;5051110;28;20052;-60
2021/08/08 05:38:51;;;;;;;4.15;2.50;;;;;;;13.39;98.80;97759.78;5055014;28;20094;-60
2021/08/08 05:41:16;;;;;;;6.80;2.53;;;;;;;13.46;98.64;97758.28;5058343;28;20040;-60
2021/08/08 05:43:42;;;;;;;8.57;2.47;;;;;;;13.60;98.84;97757.38;5059536;28;20036;-60
2021/08/08 05:46:07;;;;;;;5.10;2.40;;;;;;;13.62;98.23;97755.19;5063020;28;20584;-60
2021/08/08 05:48:32;;;;;;;5.35;2.00;;;;;;;13.71;98.11;97752.50;5048549;28;20521;-61
2021/08/08 05:50:58;;;;;;;7.40;2.25;;;;;;;13.70;98.36;97754.41;5062238;28;20119;-61
2021/08/08 05:53:23;;;;;;;4.30;2.13;;;;;;;13.79;98.21;97753.66;5050189;28;20498;-60
2021/08/08 05:55:49;;;;;;;5.45;2.22;;;;;;;13.73;98.13;97753.78;5040182;28;20474;-61
2021/08/08 05:58:15;;;;;;;3.40;2.20;;;;;;;13.70;98.00;97750.91;5039127;28;20547;-60
2021/08/08 06:00:41;;;;;;;4.35;1.95;;;;;;;13.79;98.24;97759.06;5065362;28;20028;-60
2021/08/08 06:03:09;;;;;;;10.38;2.65;;;;;;;13.71;98.30;97757.91;5062661;28;20078;-60
2021/08/08 06:05:35;;;;;;;7.90;2.45;;;;;;;13.70;98.43;97759.00;5066554;28;20037;-60
2021/08/08 06:08:01;;;;;;;6.18;2.30;;;;;;;13.72;98.47;97752.19;5055820;28;20059;-60
2021/08/08 06:10:27;;;;;;;6.45;2.30;;;;;;;13.75;97.85;97765.09;5059463;28;20497;-62
2021/08/08 06:12:52;;;;;;;8.23;2.10;;;;;;;13.74;97.67;97770.81;5043448;28;20037;-61
2021/08/08 06:15:18;;;;;;;5.63;1.98;;;;;;;13.81;97.80;97773.84;5059176;28;20087;-61
2021/08/08 06:17:44;;;;;;;6.50;2.25;;;;;;;13.88;98.09;97778.81;5054510;28;20080;-59
2021/08/08 06:20:10;;;;;;;8.63;1.95;;;;;;;13.96;97.77;97771.84;5065228;28;20064;-61
2021/08/08 06:22:35;;;;;;;6.72;1.83;;;;;;;13.99;97.18;97774.72;5071479;28;20079;-61
2021/08/08 06:25:01;;;;;;;6.70;1.55;;;;;;;14.05;97.50;97789.72;5050850;28;20036;-61
2021/08/08 06:27:26;;;;;;;4.38;1.55;;;;;;;14.10;97.58;97786.06;5061471;28;20478;-60
2021/08/08 06:29:52;;;;;;;6.35;1.70;;;;;;;14.18;97.33;97781.78;5051334;28;20036;-60
2021/08/08 06:32:18;;;;;;;4.38;1.80;;;;;;;14.23;96.95;97797.09;5063599;28;20032;-60
2021/08/08 06:34:43;;;;;;;4.50;1.83;;;;;;;14.29;97.49;97793.91;5053242;28;20033;-60
2021/08/08 06:37:10;;;;;;;4.20;1.70;;;;;;;14.30;96.99;97784.69;5049460;28;20037;-59
2021/08/08 06:39:35;;;;;;;3.97;1.70;;;;;;;14.29;96.90;97783.09;5059837;28;20033;-59
2021/08/08 06:42:02;;;;;;;4.18;1.55;;;;;;;14.23;96.85;97792.47;5060761;28;20032;-59
2021/08/08 06:44:28;;;;;;;3.08;1.80;;;;;;;14.13;96.41;97798.19;5050547;28;20074;-59
2021/08/08 06:46:54;;;;;;;5.63;1.80;;;;;;;14.04;96.36;97793.53;5061734;28;20127;-60
2021/08/08 06:49:20;;;;;;;13.20;2.13;;;;;;;14.09;97.06;97791.78;5038997;28;20135;-59
2021/08/08 06:51:46;;;;;;;4.70;2.30;;;;;;;14.05;96.83;97797.03;5064915;28;20123;-60
2021/08/08 06:54:15;;;;;;;3.72;2.40;;;;;;;14.08;97.16;97798.31;5054710;28;20063;-60
2021/08/08 06:56:40;;;;;;;5.40;1.77;;;;;;;14.07;96.35;97796.72;5062871;28;20047;-60
2021/08/08 06:59:06;;;;;;;7.93;2.35;;;;;;;14.11;96.44;97795.78;5059745;28;20444;-61
2021/08/08 07:01:32;;;;;;;3.65;2.10;;;;;;;14.20;95.99;97791.22;5056589;28;20040;-61
2021/08/08 07:03:57;;;;;;;6.50;2.10;;;;;;;14.30;95.77;97792.03;5050169;28;20041;-61
2021/08/08 07:06:22;;;;;;;7.93;2.28;;;;;;;14.41;96.07;97793.31;5058472;28;20058;-61
2021/08/08 07:08:48;;;;;;;6.40;2.25;;;;;;;14.43;95.28;97801.13;5051584;28;20489;-62
2021/08/08 07:11:14;;;;;;;6.65;2.30;;;;;;;14.51;94.98;97794.13;5051828;28;20486;-61
2021/08/08 07:13:40;;;;;;;4.43;2.20;;;;;;;14.60;94.59;97806.56;5056343;28;20505;-61
2021/08/08 07:16:07;;;;;;;3.90;1.98;;;;;;;14.71;94.65;97806.28;5052421;28;20061;-62
2021/08/08 07:18:33;;;;;;;4.88;2.10;;;;;;;14.73;94.27;97817.59;5050215;28;20037;-62
2021/08/08 07:21:05;;;;;;;3.06;1.80;;;;;;;14.67;93.63;97814.22;4904512;28;10000771;-62
2021/08/08 07:23:31;;;;;;;5.38;2.00;;;;;;;14.67;93.61;97816.13;5056840;28;20238;-62
2021/08/08 07:25:57;;;;;;;6.93;1.75;;;;;;;14.59;93.26;97815.00;5057183;28;20036;-62
2021/08/08 07:28:23;;;;;;;4.78;1.85;;;;;;;14.58;93.91;97818.84;5050434;28;20029;-62
2021/08/08 07:30:49;;;;;;;5.13;2.20;;;;;;;14.63;93.64;97814.06;5062201;28;20067;-62
2021/08/08 07:33:15;;;;;;;5.05;2.20;;;;;;;14.62;93.26;97819.81;5051047;28;20127;-62
2021/08/08 07:35:41;;;;;;;5.25;1.75;;;;;;;14.67;93.24;97826.97;5050369;28;20806;-62
2021/08/08 07:38:08;;;;;;;6.05;1.92;;;;;;;14.73;93.45;97829.25;5055523;28;20474;-62
2021/08/08 07:40:34;;;;;;;7.72;1.80;;;;;;;14.76;93.32;97831.31;5050331;28;20082;-62
2021/08/08 07:42:59;;;;;;;4.85;1.80;;;;;;;14.85;93.07;97831.31;5051508;28;20036;-62
2021/08/08 07:45:24;;;;;;;6.05;2.05;;;;;;;14.78;92.57;97834.50;5057356;28;20032;-62
2021/08/08 07:47:50;;;;;;;4.18;1.52;;;;;;;14.76;92.58;97836.75;5050771;28;20036;-62
2021/08/08 07:50:16;;;;;;;2.80;1.48;;;;;;;14.81;92.73;97840.41;5052458;28;20041;-62
2021/08/08 07:52:41;;;;;;;3.30;1.60;;;;;;;14.87;92.67;97839.94;5049024;28;20045;-62
2021/08/08 07:55:08;;;;;;;2.28;1.50;;;;;;;14.90;92.66;97847.41;5041471;28;20072;-62
2021/08/08 07:57:34;;;;;;;4.40;1.38;;;;;;;14.96;92.35;97856.22;5046693;28;20054;-62
2021/08/08 07:59:59;;;;;;;4.68;1.55;;;;;;;14.99;91.94;97847.44;5051623;28;20037;-61
2021/08/08 08:02:25;;;;;;;3.10;1.30;;;;;;;15.10;92.80;97856.06;5060516;28;20040;-62
2021/08/08 08:04:51;;;;;;;2.85;1.23;;;;;;;15.17;91.87;97855.56;5056277;28;20533;-62
2021/08/08 08:07:16;;;;;;;4.47;1.50;;;;;;;15.21;92.59;97854.63;5057023;28;20035;-62
2021/08/08 08:09:42;;;;;;;3.30;1.38;;;;;;;15.20;92.38;97860.34;5046323;28;20074;-62
2021/08/08 08:12:07;;;;;;;5.47;1.05;;;;;;;15.11;93.19;97859.56;5053589;28;20063;-62
2021/08/08 08:14:33;;;;;;;4.28;1.70;;;;;;;15.00;94.39;97873.44;5055150;28;20677;-62
2021/08/08 08:16:58;;;;;;;2.78;1.20;;;;;;;14.88;94.40;97867.84;5056562;28;20068;-62
2021/08/08 08:19:24;;;;;;;7.70;1.33;;;;;;;14.71;94.43;97879.44;5061675;28;20037;-62
2021/08/08 08:21:50;;;;;;;5.70;1.02;;;;;;;14.54;95.47;97877.47;5061010;28;20122;-61
2021/08/08 08:24:15;;;;;;;3.33;1.20;;;;;;;14.42;96.55;97887.00;5054774;28;20398;-62
2021/08/08 08:26:41;;;;;;;4.53;0.80;;;;;;;14.34;96.89;97885.06;5058062;28;20834;-62
2021/08/08 08:29:07;;;;;;;1.45;0.70;;;;;;;14.30;97.20;97894.91;5053333;28;20029;-62
2021/08/08 08:31:34;;;;;;;5.65;1.23;;;;;;;14.24;98.28;97888.03;5062470;28;20069;-62
2021/08/08 08:34:00;;;;;;;5.30;0.93;;;;;;;14.15;99.08;97888.00;5052160;28;20033;-62
2021/08/08 08:36:26;;;;;;;3.60;0.63;;;;;;;14.13;99.87;97890.22;5049060;28;20715;-62
2021/08/08 08:38:51;;;;;;;4.32;0.82;;;;;;;13.97;98.80;97900.63;5049054;28;20037;-62
2021/08/08 08:41:17;;;;;;;12.60;1.10;;;;;;;13.96;99.62;97897.16;5052752;28;20040;-62
2021/08/08 08:43:44;;;;;;;1.85;0.75;;;;;;;13.93;99.82;97910.47;5051469;28;20112;-62
2021/08/08 08:46:11;;;;;;;3.95;0.93;;;;;;;13.85;100.00;97907.41;5056653;28;20090;-62
2021/08/08 08:48:38;;;;;;;7.72;1.30;;;;;;;13.78;100.00;97909.75;5060160;28;20089;-62
2021/08/08 08:51:05;;;;;;;10.20;1.42;;;;;;;13.78;100.00;97911.69;5057014;28;20060;-62
2021/08/08 08:53:31;;;;;;;12.45;1.50;;;;;;;13.74;100.00;97927.72;5065133;28;20094;-62
2021/08/08 08:56:01;;;;;;;11.80;1.40;;;;;;;13.69;100.00;97925.13;5058455;28;20078;-61
2021/08/08 08:58:28;;;;;;;7.03;1.90;;;;;;;13.69;100.00;97920.53;4699900;28;10000449;-61
2021/08/08 09:00:54;;;;;;;11.65;2.15;;;;;;;13.70;100.00;97918.63;5055514;28;20517;-61
2021/08/08 09:03:20;;;;;;;6.15;1.80;;;;;;;13.71;100.00;97931.03;5054251;28;20040;-61
2021/08/08 09:05:45;;;;;;;4.68;2.03;;;;;;;13.71;100.00;97931.84;5055981;28;20028;-61
2021/08/08 09:08:11;;;;;;;16.10;3.63;;;;;;;13.76;100.00;97934.44;5053804;28;20508;-61
2021/08/08 09:10:37;;;;;;;9.50;2.65;;;;;;;13.86;100.00;97944.19;5051140;28;20033;-62
2021/08/08 09:13:04;;;;;;;6.18;3.42;;;;;;;13.97;100.00;97941.22;5056162;28;20040;-60
2021/08/08 09:15:36;;;;;;;7.03;4.05;;;;;;;14.01;100.00;97951.16;5056899;28;20029;-60
2021/08/08 09:18:11;;;;;;;9.25;5.15;;;;;;;14.07;100.00;97951.00;5054035;28;21008;-60
2021/08/08 09:20:36;;;;;;;11.07;6.00;;;;;;;14.13;100.00;97960.59;5050766;28;20298;-60
2021/08/08 09:23:02;;;;;;;10.55;7.15;;;;;;;14.25;100.00;97968.16;5053974;28;20037;-61
2021/08/08 09:25:28;;;;;;;12.80;7.05;;;;;;;14.39;100.00;97968.06;5054158;28;20552;-61
2021/08/08 09:28:09;;;;;;;18.80;7.80;;;;;;;14.55;99.85;97971.16;5055784;28;20063;-61
2021/08/08 09:30:40;;;;;;;15.65;7.68;;;;;;;14.68;98.97;97974.88;5060725;28;20460;-61
2021/08/08 09:33:07;;;;;;;12.93;6.93;;;;;;;14.76;98.76;97968.72;5054964;28;20511;-61
2021/08/08 09:35:39;;;;;;;10.13;6.05;;;;;;;14.74;97.93;97979.06;5050304;28;20094;-61
2021/08/08 09:38:07;;;;;;;7.57;4.82;;;;;;;14.62;96.92;97975.00;5052962;28;20702;-60
2021/08/08 09:40:54;;;;;;;10.48;5.60;;;;;;;14.58;98.32;97978.69;5050568;28;20043;-61
2021/08/08 09:43:24;;;;;;;15.82;5.07;;;;;;;14.56;99.05;97984.38;5054530;28;20031;-61
2021/08/08 09:45:50;;;;;;;8.65;4.78;;;;;;;14.49;99.16;97992.16;5053514;28;20038;-61
2021/08/08 09:48:15;;;;;;;18.60;4.60;;;;;;;14.44;99.68;97995.81;5049085;28;20032;-61
2021/08/08 09:50:42;;;;;;;10.80;5.00;;;;;;;14.44;100.00;97995.81;5053031;28;20139;-62
2021/08/08 09:53:15;;;;;;;7.70;4.50;;;;;;;14.47;99.95;97991.69;5055494;28;20037;-61
2021/08/08 09:55:40;;;;;;;14.05;4.07;;;;;;;14.43;99.83;97988.00;5050045;28;20098;-61
2021/08/08 09:58:26;;;;;;;10.30;3.97;;;;;;;14.41;99.88;98003.75;5052677;28;20056;-61
2021/08/08 10:00:59;;;;;;;8.38;4.00;;;;;;;14.37;100.00;97998.19;5040289;28;20037;-61
2021/08/08 10:03:25;;;;;;;7.47;4.05;;;;;;;14.42;100.00;98003.47;5049914;28;20037;-61
2021/08/08 10:05:54;;;;;;;9.20;4.18;;;;;;;14.48;100.00;98004.94;5050917;28;20067;-61
2021/08/08 10:08:21;;;;;;;11.15;4.38;;;;;;;14.67;100.00;98000.38;5049991;28;20052;-62
2021/08/08 10:10:49;;;;;;;7.47;4.57;;;;;;;14.72;100.00;98006.50;5049808;28;20032;-61
2021/08/08 10:13:53;;;;;;;8.35;3.88;;;;;;;14.84;100.00;98007.81;5049602;28;20052;-61
2021/08/08 10:16:20;;;;;;;9.13;4.00;;;;;;;14.85;100.00;98018.31;5047273;28;20036;-61
2021/08/08 10:18:51;;;;;;;5.68;3.25;;;;;;;14.78;100.00;98017.97;5060030;28;20082;-61
2021/08/08 10:21:18;;;;;;;9.02;4.10;;;;;;;14.82;100.00;98015.47;5049111;28;20028;-62
2021/08/08 10:23:46;;;;;;;10.63;4.75;;;;;;;14.72;99.55;98022.75;5053729;28;20037;-61
2021/08/08 10:26:13;;;;;;;16.10;4.50;;;;;;;14.67;99.68;98022.84;5056501;28;20037;-62
2021/08/08 10:28:40;;;;;;;9.45;5.30;;;;;;;14.57;100.00;98031.25;5052162;28;20040;-62
2021/08/08 10:31:06;;;;;;;10.38;5.35;;;;;;;14.53;100.00;98036.47;5056918;28;20029;-62
2021/08/08 10:33:48;;;;;;;8.32;5.57;;;;;;;14.48;100.00;98037.44;5043524;28;20041;-62
2021/08/08 10:36:35;;;;;;;9.70;5.85;;;;;;;14.44;100.00;98038.34;5057801;28;20025;-63
2021/08/08 10:39:15;;;;;;;12.45;5.68;;;;;;;14.41;100.00;98042.50;5050244;28;20033;-61
2021/08/08 10:41:53;;;;;;;5.03;4.53;;;;;;;15.24;97.32;98039.50;5050821;28;20111;-62
2021/08/08 10:44:20;;;;;;;5.88;4.28;;;;;;;14.57;98.94;98040.16;5056120;28;20115;-62
2021/08/08 10:46:51;;;;;;;7.20;4.70;;;;;;;14.32;100.00;98057.88;5051482;28;20065;-61
2021/08/08 10:49:31;;;;;;;7.65;4.00;;;;;;;14.24;100.00;98054.00;5050716;28;20043;-62
2021/08/08 10:51:59;;;;;;;5.30;4.20;;;;;;;14.27;100.00;98052.59;5047430;28;20120;-62
2021/08/08 10:54:24;;;;;;;5.18;3.30;;;;;;;14.36;100.00;98053.44;5049685;28;20079;-62
2021/08/08 10:56:50;;;;;;;8.02;3.88;;;;;;;14.54;100.00;98058.97;5058619;28;20402;-62
2021/08/08 10:59:19;;;;;;;6.97;4.00;;;;;;;14.78;100.00;98059.44;5045603;28;20651;-62
2021/08/08 11:01:46;;;;;;;7.65;3.67;;;;;;;15.06;99.16;98069.28;5040052;28;20038;-62
2021/08/08 11:04:13;;;;;;;4.45;2.90;;;;;;;15.11;98.28;98063.72;5048577;28;20084;-62
2021/08/08 11:06:42;;;;;;;7.18;2.95;;;;;;;15.12;96.09;98067.22;5054470;28;20531;-62
2021/08/08 11:09:07;;;;;;;8.57;2.83;;;;;;;15.11;97.01;98076.47;5049407;28;20746;-62
2021/08/08 11:11:37;;;;;;;4.70;2.80;;;;;;;15.18;98.04;98076.81;5057057;28;20092;-62
2021/08/08 11:14:14;;;;;;;5.57;2.92;;;;;;;15.25;98.66;98081.78;5049474;28;20372;-62
2021/08/08 11:16:42;;;;;;;4.68;2.88;;;;;;;15.31;97.13;98084.03;5051152;28;20103;-62
2021/08/08 11:19:09;;;;;;;6.30;2.65;;;;;;;15.12;96.36;98076.16;5050958;28;20028;-62
2021/08/08 11:21:34;;;;;;;9.70;3.15;;;;;;;14.99;96.75;98090.59;5046957;28;20168;-62
2021/08/08 11:24:03;;;;;;;8.60;3.55;;;;;;;14.82;98.41;98091.34;5042723;28;20124;-62
2021/08/08 11:26:29;;;;;;;19.10;4.25;;;;;;;14.76;98.97;98106.91;5048484;28;20713;-62
2021/08/08 11:28:58;;;;;;;7.78;4.00;;;;;;;14.68;99.18;98104.94;5052658;28;20025;-62